createdAt,value
2022-11-14T00:01:53.526Z,82.99
2022-11-14T00:07:13.939Z,82.86
2022-11-14T00:12:40.932Z,82.80
2022-11-14T00:18:01.549Z,82.76
2022-11-14T00:23:22.023Z,82.68
2022-11-14T00:28:42.490Z,82.66
2022-11-14T00:34:07.895Z,82.60
2022-11-14T00:39:28.261Z,82.62
2022-11-14T00:44:48.695Z,82.91
2022-11-14T00:50:10.074Z,82.90
2022-11-14T00:55:30.619Z,83.08
2022-11-14T01:00:52.187Z,83.27
2022-11-14T01:06:14.044Z,83.24
2022-11-14T01:11:34.167Z,83.21
2022-11-14T01:16:54.720Z,83.31
2022-11-14T01:22:15.155Z,83.38
2022-11-14T01:27:35.766Z,83.40
2022-11-14T01:32:56.218Z,83.71
2022-11-14T01:38:16.421Z,83.86
2022-11-14T01:43:40.465Z,84.24
2022-11-14T01:49:22.336Z,83.98
2022-11-14T01:54:45.835Z,83.80
2022-11-14T02:00:08.437Z,83.82
2022-11-14T02:05:29.938Z,83.64
2022-11-14T02:10:50.261Z,83.73
2022-11-14T02:16:10.811Z,83.59
2022-11-14T02:21:30.937Z,83.74
2022-11-14T02:26:51.462Z,83.65
2022-11-14T02:32:11.873Z,83.80
2022-11-14T02:37:32.103Z,83.71
2022-11-14T02:42:52.771Z,83.72
2022-11-14T02:48:13.224Z,83.89
2022-11-14T02:53:33.939Z,83.82
2022-11-14T02:58:54.071Z,83.71
2022-11-14T03:04:14.695Z,83.69
2022-11-14T03:09:34.977Z,83.53
2022-11-14T03:14:55.567Z,83.58
2022-11-14T03:20:16.102Z,83.50
2022-11-14T03:25:36.331Z,83.37
2022-11-14T03:30:57.431Z,83.43
2022-11-14T03:36:17.654Z,83.43
2022-11-14T03:41:38.423Z,83.29
2022-11-14T03:46:59.117Z,83.49
2022-11-14T03:52:19.672Z,83.53
2022-11-14T03:57:39.920Z,83.51
2022-11-14T04:03:00.542Z,83.42
2022-11-14T04:08:20.842Z,83.37
2022-11-14T04:13:41.213Z,83.52
2022-11-14T04:19:01.486Z,83.46
2022-11-14T04:24:22.089Z,83.51
2022-11-14T04:29:42.676Z,83.82
2022-11-14T04:35:03.258Z,84.17
2022-11-14T04:40:23.713Z,83.97
2022-11-14T04:45:44.075Z,83.83
2022-11-14T04:51:04.343Z,83.84
2022-11-14T04:56:25.619Z,84.13
2022-11-14T05:01:46.022Z,84.20
2022-11-14T05:07:06.641Z,84.21
2022-11-14T05:12:27.201Z,84.50
2022-11-14T05:17:47.720Z,84.86
2022-11-14T05:23:13.931Z,84.85
2022-11-14T05:28:34.679Z,84.85
2022-11-14T05:33:55.058Z,84.91
2022-11-14T05:39:16.401Z,85.12
2022-11-14T05:44:36.626Z,85.21
2022-11-14T05:49:57.140Z,85.17
2022-11-14T05:55:24.223Z,85.07
2022-11-14T06:00:51.990Z,84.96
2022-11-14T06:06:16.347Z,84.79
2022-11-14T06:11:37.076Z,84.53
2022-11-14T06:16:57.754Z,84.61
2022-11-14T06:22:17.909Z,84.61
2022-11-14T06:27:38.122Z,84.47
2022-11-14T06:33:01.677Z,84.50
2022-11-14T06:38:22.242Z,84.32
2022-11-14T06:43:44.069Z,84.29
2022-11-14T06:49:04.326Z,84.31
2022-11-14T06:54:24.654Z,84.35
2022-11-14T06:59:45.261Z,84.19
2022-11-14T07:05:06.058Z,84.25
2022-11-14T07:10:26.120Z,84.36
2022-11-14T07:15:50.273Z,84.46
2022-11-14T07:21:13.443Z,84.37
2022-11-14T07:26:33.833Z,84.25
2022-11-14T07:31:54.108Z,84.34
2022-11-14T07:37:14.244Z,84.14
2022-11-14T07:42:34.776Z,83.81
2022-11-14T07:47:56.159Z,83.67
2022-11-14T07:53:17.943Z,83.68
2022-11-14T07:58:39.352Z,83.44
2022-11-14T08:03:59.500Z,83.21
2022-11-14T08:09:19.936Z,82.94
2022-11-14T08:14:40.447Z,82.91
2022-11-14T08:20:01.258Z,82.74
2022-11-14T08:25:21.508Z,82.40
2022-11-14T08:30:41.955Z,82.23
2022-11-14T08:36:03.461Z,82.08
2022-11-14T08:41:24.181Z,81.96
2022-11-14T08:46:44.403Z,81.90
2022-11-14T08:52:04.855Z,81.83
2022-11-14T08:57:25.063Z,81.68
2022-11-14T09:02:45.712Z,81.49
2022-11-14T09:08:06.580Z,81.02
2022-11-14T09:13:27.700Z,80.61
2022-11-14T09:18:48.193Z,80.42
2022-11-14T09:24:08.838Z,80.29
2022-11-14T09:29:29.153Z,79.61
2022-11-14T09:34:49.574Z,79.28
2022-11-14T09:40:11.664Z,80.08
2022-11-14T09:45:32.715Z,79.83
2022-11-14T09:51:06.165Z,79.45
2022-11-14T09:56:26.914Z,79.11
2022-11-14T10:01:59.466Z,78.48
2022-11-14T10:07:40.546Z,78.63
2022-11-14T10:13:04.119Z,78.41
2022-11-14T10:18:24.289Z,77.84
2022-11-14T10:27:28.324Z,77.69
2022-11-14T10:33:17.013Z,77.47
2022-11-14T10:39:22.116Z,76.79
2022-11-14T10:44:51.166Z,76.04
2022-11-14T10:50:41.100Z,76.28
2022-11-14T10:56:04.775Z,76.17
2022-11-14T11:01:42.219Z,75.99
2022-11-14T11:07:08.470Z,75.40
2022-11-14T11:12:46.443Z,75.80
2022-11-14T11:18:36.713Z,75.76
2022-11-14T11:23:57.757Z,75.48
2022-11-14T11:29:19.955Z,75.47
2022-11-14T11:34:40.646Z,75.72
2022-11-14T11:40:04.552Z,75.52
2022-11-14T11:45:26.147Z,75.41
2022-11-14T11:50:47.227Z,75.08
2022-11-14T11:56:19.673Z,75.10
2022-11-14T12:01:40.658Z,74.79
2022-11-14T12:07:10.860Z,75.46
2022-11-14T12:12:43.564Z,75.31
2022-11-14T12:18:22.581Z,74.96
2022-11-14T12:24:17.540Z,74.72
2022-11-14T12:29:53.343Z,74.81
2022-11-14T12:35:27.398Z,74.67
2022-11-14T12:41:00.424Z,74.43
2022-11-14T12:46:20.986Z,74.98
2022-11-14T12:51:49.010Z,75.27
2022-11-14T12:57:37.640Z,75.52
2022-11-14T13:03:13.243Z,75.97
2022-11-14T13:09:11.306Z,75.95
2022-11-14T13:15:06.748Z,76.27
2022-11-14T13:20:54.429Z,76.32
2022-11-14T13:26:14.831Z,76.12
2022-11-14T13:31:35.035Z,76.35
2022-11-14T13:36:58.630Z,76.16
2022-11-14T13:42:43.964Z,76.17
2022-11-14T13:48:20.155Z,76.23
2022-11-14T13:53:42.022Z,76.29
2022-11-14T13:59:27.750Z,76.37
2022-11-14T14:05:21.224Z,76.42
2022-11-14T14:10:43.306Z,76.53
2022-11-14T14:16:15.533Z,76.64
2022-11-14T14:22:08.587Z,76.81
2022-11-14T14:28:06.282Z,77.01
2022-11-14T14:33:26.991Z,77.35
2022-11-14T14:38:47.934Z,77.58
2022-11-14T14:44:27.321Z,77.69
2022-11-14T14:49:47.911Z,78.32
2022-11-14T14:55:20.131Z,78.51
2022-11-14T15:00:40.564Z,78.91
2022-11-14T15:06:17.893Z,79.55
2022-11-14T15:11:43.793Z,80.13
2022-11-14T15:17:05.093Z,79.93
2022-11-14T15:22:29.353Z,79.86
2022-11-14T15:27:58.941Z,79.78
2022-11-14T15:33:31.174Z,79.81
2022-11-14T15:39:27.114Z,79.89
2022-11-14T15:44:49.162Z,80.04
2022-11-14T15:50:13.064Z,80.26
2022-11-14T15:55:33.605Z,80.55
2022-11-14T16:00:55.748Z,80.42
2022-11-14T16:06:17.129Z,80.41
2022-11-14T16:11:38.012Z,80.27
2022-11-14T16:16:58.868Z,80.31
2022-11-14T16:22:19.608Z,80.21
2022-11-14T16:27:40.392Z,80.53
2022-11-14T16:33:01.001Z,80.69
2022-11-14T16:38:21.670Z,80.78
2022-11-14T16:43:42.366Z,80.93
2022-11-14T16:49:03.185Z,80.95
2022-11-14T16:54:24.666Z,80.98
2022-11-14T16:59:45.518Z,80.85
2022-11-14T17:05:06.358Z,81.15
2022-11-14T17:10:26.686Z,81.20
2022-11-14T17:15:47.154Z,81.22
2022-11-14T17:21:10.572Z,81.22
2022-11-14T17:26:31.316Z,81.43
2022-11-14T17:31:51.987Z,81.65
2022-11-14T17:37:12.611Z,81.63
2022-11-14T17:42:33.247Z,81.73
2022-11-14T17:47:54.104Z,81.67
2022-11-14T17:53:15.207Z,81.52
2022-11-14T17:58:35.783Z,81.56
2022-11-14T18:04:00.402Z,81.73
2022-11-14T18:09:23.726Z,81.82
2022-11-14T18:14:44.609Z,82.11
2022-11-14T18:20:06.078Z,81.93
2022-11-14T18:25:26.479Z,81.86
2022-11-14T18:30:55.667Z,82.00
2022-11-14T18:36:17.347Z,81.99
2022-11-14T18:41:38.127Z,82.13
2022-11-14T18:46:58.991Z,82.35
2022-11-14T18:52:19.841Z,82.68
2022-11-14T18:57:40.520Z,82.52
2022-11-14T19:03:05.812Z,82.29
2022-11-14T19:08:27.334Z,82.32
2022-11-14T19:13:48.051Z,82.34
2022-11-14T19:19:09.401Z,82.44
2022-11-14T19:24:30.134Z,82.49
2022-11-14T19:29:51.000Z,82.42
2022-11-14T19:35:14.805Z,82.46
2022-11-14T19:40:39.753Z,82.47
2022-11-14T19:46:02.903Z,82.46
2022-11-14T19:51:24.608Z,82.46
2022-11-14T19:56:45.243Z,82.45
2022-11-14T20:02:06.116Z,82.44
2022-11-14T20:07:26.800Z,82.41
2022-11-14T20:12:47.305Z,82.22
2022-11-14T20:18:08.078Z,82.11
2022-11-14T20:23:29.348Z,82.17
2022-11-14T20:28:52.896Z,82.14
2022-11-14T20:34:13.770Z,82.14
2022-11-14T20:39:34.448Z,82.13
2022-11-14T20:44:55.048Z,82.19
2022-11-14T20:50:15.530Z,82.23
2022-11-14T20:55:35.662Z,82.09
2022-11-14T21:00:56.069Z,82.12
2022-11-14T21:06:17.168Z,82.01
2022-11-14T21:11:37.744Z,82.19
2022-11-14T21:16:58.457Z,82.52
2022-11-14T21:22:19.575Z,83.02
2022-11-14T21:27:40.150Z,83.43
2022-11-14T21:33:00.760Z,83.33
2022-11-14T21:38:21.640Z,83.25
2022-11-14T21:43:43.772Z,83.19
2022-11-14T21:49:04.484Z,83.17
2022-11-14T21:54:25.155Z,83.06
2022-11-14T21:59:45.953Z,83.06
2022-11-14T22:05:08.038Z,83.12
2022-11-14T22:10:28.482Z,83.14
2022-11-14T22:15:51.263Z,83.39
2022-11-14T22:21:12.181Z,83.29
2022-11-14T22:26:35.413Z,83.17
2022-11-14T22:31:57.534Z,83.31
2022-11-14T22:37:18.153Z,83.54
2022-11-14T22:42:38.759Z,83.67
2022-11-14T22:48:03.387Z,83.68
2022-11-14T22:53:24.044Z,83.83
2022-11-14T22:58:44.722Z,83.63
2022-11-14T23:04:05.666Z,83.55
2022-11-14T23:09:27.257Z,83.66
2022-11-14T23:14:47.931Z,83.73
2022-11-14T23:20:15.104Z,83.72
2022-11-14T23:25:38.007Z,83.57
2022-11-14T23:30:59.679Z,83.40
2022-11-14T23:36:20.317Z,83.40
2022-11-14T23:41:40.801Z,83.27
2022-11-14T23:47:01.764Z,83.32
2022-11-14T23:52:22.287Z,83.26
2022-11-14T23:57:42.973Z,83.17
